Time;durP1;ratioP1;P1;durP2;ratioP2;P2;SDS_P1;SDS_P2;PMS_P1;PMS_P2;Temp;Humidity;BMP_temperature;BMP_pressure;BME280_temperature;BME280_humidity;BME280_pressure;Samples;Min_cycle;Max_cycle;Signal;HPM_P1;HPM_P2
2023/03/28 00:01:27;;;;;;;11.20;2.00;;;1.10;99.90;;;;;;5011449;28;20491;-49
2023/03/28 00:03:53;;;;;;;11.07;2.03;;;1.10;99.90;;;;;;5027113;28;20042;-49
2023/03/28 00:06:20;;;;;;;8.05;1.80;;;1.10;99.90;;;;;;5031287;28;20065;-49
2023/03/28 00:08:46;;;;;;;11.57;2.47;;;1.10;99.90;;;;;;5029799;28;20046;-49
2023/03/28 00:11:18;;;;;;;9.95;1.83;;;1.10;99.90;;;;;;5033647;28;20116;-53
2023/03/28 00:13:59;;;;;;;7.72;1.88;;;1.10;99.90;;;;;;5029432;28;20061;-50
2023/03/28 00:16:37;;;;;;;11.00;2.05;;;1.00;99.90;;;;;;5027877;28;20042;-50
2023/03/28 00:19:06;;;;;;;14.70;2.58;;;1.10;99.90;;;;;;5029286;28;20049;-52
2023/03/28 00:21:37;;;;;;;14.55;2.97;;;1.10;99.90;;;;;;5034124;28;20045;-54
2023/03/28 00:24:05;;;;;;;12.00;1.85;;;1.10;99.90;;;;;;5032826;28;20037;-50
2023/03/28 00:26:33;;;;;;;;;;;1.10;99.90;;;;;;5040138;28;20123;-51
2023/03/28 00:29:02;;;;;;;13.07;2.22;;;1.00;99.90;;;;;;5026786;28;19939;-50
2023/03/28 00:31:29;;;;;;;13.88;1.90;;;1.00;99.90;;;;;;5023554;28;20506;-49
2023/03/28 00:33:55;;;;;;;13.75;2.47;;;1.00;99.90;;;;;;5021161;28;20038;-49
2023/03/28 00:36:25;;;;;;;12.30;2.20;;;1.00;99.90;;;;;;5026304;28;20038;-51
2023/03/28 00:38:56;;;;;;;20.17;2.35;;;1.00;99.90;;;;;;5031880;28;20406;-50
2023/03/28 00:41:25;;;;;;;12.52;1.88;;;1.00;99.90;;;;;;5031978;28;20137;-49
2023/03/28 00:43:54;;;;;;;11.50;2.22;;;1.00;99.90;;;;;;5032067;28;20041;-49
2023/03/28 00:46:40;;;;;;;11.15;1.83;;;1.00;99.90;;;;;;5032171;28;20116;-50
2023/03/28 00:49:21;;;;;;;14.60;2.00;;;1.00;99.90;;;;;;5030428;28;20041;-50
2023/03/28 00:52:00;;;;;;;12.43;2.00;;;1.00;99.90;;;;;;5025887;28;20140;-50
2023/03/28 00:54:29;;;;;;;12.93;2.03;;;1.00;99.90;;;;;;5027583;28;20045;-52
2023/03/28 00:57:00;;;;;;;13.05;2.65;;;1.00;99.90;;;;;;5026452;28;20037;-50
2023/03/28 00:59:29;;;;;;;14.10;2.20;;;1.00;99.90;;;;;;5026794;28;20049;-52
2023/03/28 01:01:55;;;;;;;9.23;2.00;;;0.90;99.90;;;;;;5028059;28;20441;-52
2023/03/28 01:04:26;;;;;;;14.18;2.42;;;0.90;99.90;;;;;;5027361;28;20037;-53
2023/03/28 01:06:55;;;;;;;9.50;1.75;;;0.90;99.90;;;;;;5025964;28;20111;-49
2023/03/28 01:09:22;;;;;;;10.95;2.00;;;0.90;99.90;;;;;;5030741;28;20401;-53
2023/03/28 01:11:49;;;;;;;6.72;1.98;;;0.80;99.90;;;;;;5035609;28;20038;-53
2023/03/28 01:14:19;;;;;;;10.40;1.80;;;0.80;99.90;;;;;;5033637;28;20037;-50
2023/03/28 01:16:46;;;;;;;12.95;2.15;;;0.80;99.90;;;;;;5043354;28;20041;-51
2023/03/28 01:19:57;;;;;;;8.43;1.85;;;0.80;99.90;;;;;;5055272;28;20041;-50
2023/03/28 01:22:42;;;;;;;13.10;2.63;;;0.70;99.90;;;;;;4973669;28;20063;-51
2023/03/28 01:25:47;;;;;;;10.75;2.20;;;0.70;99.90;;;;;;4973905;28;20042;-49
2023/03/28 01:28:24;;;;;;;13.30;1.92;;;0.60;99.90;;;;;;4974030;28;20054;-50
2023/03/28 01:31:03;;;;;;;13.02;2.80;;;0.70;99.90;;;;;;4974335;28;20169;-53
2023/03/28 01:34:03;;;;;;;10.32;1.85;;;0.60;99.90;;;;;;4986168;28;20150;-53
2023/03/28 01:36:45;;;;;;;14.10;2.38;;;0.60;99.90;;;;;;4967441;28;20053;-52
2023/03/28 01:39:38;;;;;;;12.00;1.90;;;0.60;99.90;;;;;;4968147;28;20064;-52
2023/03/28 01:42:25;;;;;;;14.20;2.03;;;0.50;99.90;;;;;;4969945;28;20093;-52
2023/03/28 01:45:16;;;;;;;14.57;2.00;;;0.50;99.90;;;;;;4965884;28;20087;-54
2023/03/28 01:47:46;;;;;;;12.73;2.88;;;0.50;99.90;;;;;;4964892;28;20055;-50
2023/03/28 01:50:17;;;;;;;9.68;1.67;;;0.40;99.90;;;;;;4967074;28;20038;-55
2023/03/28 01:53:07;;;;;;;7.88;2.00;;;0.50;99.90;;;;;;4966327;28;20067;-54
2023/03/28 01:55:35;;;;;;;8.77;2.40;;;0.40;99.90;;;;;;4966874;28;20035;-49
2023/03/28 01:58:19;;;;;;;11.43;2.25;;;0.40;99.90;;;;;;4966093;28;20066;-51
2023/03/28 02:00:53;;;;;;;12.77;2.03;;;0.40;99.90;;;;;;5026287;28;20368;-49
2023/03/28 02:03:24;;;;;;;14.45;2.10;;;0.40;99.90;;;;;;5027481;28;20045;-49
2023/03/28 02:05:53;;;;;;;10.98;2.08;;;0.40;99.90;;;;;;5026492;28;20479;-50
2023/03/28 02:08:20;;;;;;;11.95;2.58;;;0.40;99.90;;;;;;5027611;28;20068;-53
2023/03/28 02:10:48;;;;;;;11.65;2.42;;;0.40;99.90;;;;;;5026676;28;20049;-49
2023/03/28 02:13:28;;;;;;;12.10;2.28;;;0.50;99.90;;;;;;5030081;28;20048;-51
2023/03/28 02:15:58;;;;;;;15.57;2.25;;;0.40;99.90;;;;;;5033858;28;20067;-49
2023/03/28 02:18:30;;;;;;;11.40;2.85;;;0.50;99.90;;;;;;5033951;28;20329;-50
2023/03/28 02:21:04;;;;;;;11.82;3.28;;;0.50;99.90;;;;;;5014203;28;20049;-49
2023/03/28 02:23:37;;;;;;;19.45;2.35;;;0.50;99.90;;;;;;5033399;28;20049;-53
2023/03/28 02:26:03;;;;;;;10.20;2.42;;;0.60;99.90;;;;;;5034154;28;20426;-49
2023/03/28 02:28:31;;;;;;;15.88;2.53;;;0.60;99.90;;;;;;5033819;28;20200;-50
2023/03/28 02:30:57;;;;;;;14.52;2.83;;;0.70;99.90;;;;;;5032366;28;20465;-49
2023/03/28 02:33:38;;;;;;;11.38;2.22;;;0.60;99.90;;;;;;5010974;28;20399;-51
2023/03/28 02:36:31;;;;;;;13.98;2.15;;;0.60;99.90;;;;;;5027112;28;20042;-50
2023/03/28 02:39:12;;;;;;;13.02;2.40;;;0.70;99.90;;;;;;5027427;28;20061;-53
2023/03/28 02:41:57;;;;;;;9.70;2.30;;;0.70;99.90;;;;;;5022930;28;20049;-49
2023/03/28 02:44:32;;;;;;;7.53;2.33;;;0.70;99.90;;;;;;5022022;28;20045;-51
2023/03/28 02:47:19;;;;;;;11.93;2.80;;;0.70;99.90;;;;;;5025699;28;20517;-50
2023/03/28 02:49:48;;;;;;;15.85;2.25;;;0.70;99.90;;;;;;5024287;28;20375;-51
2023/03/28 02:52:33;;;;;;;12.73;2.20;;;0.60;99.90;;;;;;5007853;28;20053;-51
2023/03/28 02:55:02;;;;;;;12.77;2.17;;;0.60;99.90;;;;;;5004368;28;20171;-53
2023/03/28 02:57:37;;;;;;;12.52;2.38;;;0.60;99.90;;;;;;5020816;28;20417;-49
2023/03/28 03:00:11;;;;;;;9.45;2.50;;;0.50;99.90;;;;;;5024177;28;20406;-51
2023/03/28 03:02:39;;;;;;;7.57;2.30;;;0.50;99.90;;;;;;5008226;28;20529;-49
2023/03/28 03:05:05;;;;;;;10.55;2.17;;;0.50;99.90;;;;;;5026006;28;20518;-49
2023/03/28 03:07:31;;;;;;;12.10;2.17;;;0.50;99.90;;;;;;5025804;28;20049;-49
2023/03/28 03:09:57;;;;;;;12.82;2.92;;;0.50;99.90;;;;;;5027297;28;20509;-50
2023/03/28 03:12:23;;;;;;;7.70;1.95;;;0.50;99.90;;;;;;5026450;28;20422;-50
2023/03/28 03:14:49;;;;;;;12.40;2.17;;;0.50;99.90;;;;;;5026249;28;20122;-50
2023/03/28 03:17:19;;;;;;;8.15;2.20;;;0.50;99.90;;;;;;5023853;28;20064;-51
2023/03/28 03:19:44;;;;;;;14.77;2.60;;;0.60;99.90;;;;;;5026842;28;20060;-51
2023/03/28 03:22:10;;;;;;;8.23;1.95;;;0.60;99.90;;;;;;5025256;28;20503;-49
2023/03/28 03:24:36;;;;;;;9.07;2.08;;;0.60;99.90;;;;;;5008837;28;20068;-51
2023/03/28 03:27:04;;;;;;;11.05;2.08;;;0.60;99.90;;;;;;5025625;28;20207;-52
2023/03/28 03:29:30;;;;;;;11.18;1.98;;;0.60;99.90;;;;;;5009065;28;20154;-49
2023/03/28 03:31:55;;;;;;;12.35;2.60;;;0.60;99.90;;;;;;5025161;28;20045;-49
2023/03/28 03:34:23;;;;;;;15.25;2.40;;;0.50;99.90;;;;;;5025407;28;20038;-49
2023/03/28 03:36:51;;;;;;;11.25;2.22;;;0.50;99.90;;;;;;5027512;28;20394;-49
2023/03/28 03:39:17;;;;;;;12.02;2.72;;;0.50;99.90;;;;;;5025487;28;20046;-50
2023/03/28 03:41:43;;;;;;;15.55;2.40;;;0.50;99.90;;;;;;5026637;28;20034;-49
2023/03/28 03:44:08;;;;;;;11.55;2.25;;;0.50;99.90;;;;;;5025240;28;20080;-50
2023/03/28 03:46:34;;;;;;;13.93;2.50;;;0.50;99.90;;;;;;5024727;28;20415;-51
2023/03/28 03:49:00;;;;;;;12.38;2.55;;;0.50;99.90;;;;;;5025170;28;20060;-49
2023/03/28 03:51:25;;;;;;;11.50;2.13;;;0.50;99.90;;;;;;5025803;28;20076;-50
2023/03/28 03:53:51;;;;;;;12.55;1.75;;;0.50;99.90;;;;;;5025154;28;20042;-49
2023/03/28 03:56:16;;;;;;;17.00;2.88;;;0.50;99.90;;;;;;4992601;28;20080;-50
2023/03/28 03:58:42;;;;;;;7.70;1.92;;;0.50;99.90;;;;;;5025671;28;20366;-51
2023/03/28 04:01:12;;;;;;;13.88;2.20;;;0.40;99.90;;;;;;5021971;28;20109;-51
2023/03/28 04:03:40;;;;;;;11.25;2.53;;;0.40;99.90;;;;;;5028413;28;20268;-50
2023/03/28 04:06:05;;;;;;;13.10;2.38;;;0.40;99.90;;;;;;5030622;28;20046;-49
2023/03/28 04:08:32;;;;;;;13.38;2.33;;;0.40;99.90;;;;;;5025483;28;20033;-49
2023/03/28 04:10:57;;;;;;;12.93;2.33;;;0.30;99.90;;;;;;5030566;28;20038;-50
2023/03/28 04:13:23;;;;;;;9.10;1.88;;;0.30;99.90;;;;;;5029182;28;20038;-49
2023/03/28 04:15:49;;;;;;;14.73;2.28;;;0.30;99.90;;;;;;5013154;28;20558;-51
2023/03/28 04:18:16;;;;;;;10.73;2.10;;;0.20;99.90;;;;;;5024254;28;20042;-49
2023/03/28 04:20:45;;;;;;;11.67;2.33;;;0.20;99.90;;;;;;5021909;28;20049;-49
2023/03/28 04:23:11;;;;;;;12.85;2.38;;;0.20;99.90;;;;;;5025967;28;20041;-49
2023/03/28 04:25:40;;;;;;;11.48;2.60;;;0.20;99.90;;;;;;5029642;28;20038;-50
2023/03/28 04:28:08;;;;;;;11.10;2.17;;;0.20;99.90;;;;;;5016398;28;20119;-49
2023/03/28 04:30:34;;;;;;;12.40;2.42;;;0.20;99.90;;;;;;5028102;28;20065;-50
2023/03/28 04:33:00;;;;;;;9.55;1.90;;;0.20;99.90;;;;;;5032020;28;20106;-49
2023/03/28 04:35:28;;;;;;;9.32;2.13;;;0.20;99.90;;;;;;5034405;28;20491;-49
2023/03/28 04:37:56;;;;;;;12.40;2.30;;;0.10;99.90;;;;;;5033931;28;20045;-49
2023/03/28 04:40:22;;;;;;;;;;;0.10;99.90;;;;;;5034390;28;20049;-50
2023/03/28 04:42:49;;;;;;;9.05;2.10;;;0.20;99.90;;;;;;5034469;28;19975;-49
2023/03/28 04:45:14;;;;;;;14.63;2.47;;;0.10;99.90;;;;;;5032853;28;20171;-49
2023/03/28 04:47:40;;;;;;;12.10;1.90;;;0.10;99.90;;;;;;5033598;28;20518;-50
2023/03/28 04:50:07;;;;;;;9.48;1.83;;;0.10;99.90;;;;;;5030329;28;20128;-50
2023/03/28 04:52:34;;;;;;;9.50;1.80;;;0.10;99.90;;;;;;5013087;28;20459;-51
2023/03/28 04:55:00;;;;;;;7.88;1.67;;;0.20;99.90;;;;;;5026840;28;20072;-53
2023/03/28 04:57:25;;;;;;;10.98;2.28;;;0.20;99.90;;;;;;5025795;28;20064;-50
2023/03/28 04:59:51;;;;;;;8.88;2.00;;;0.30;99.90;;;;;;5027102;28;20100;-53
2023/03/28 05:02:17;;;;;;;10.98;2.28;;;0.30;99.90;;;;;;5028221;28;20041;-52
2023/03/28 05:04:43;;;;;;;11.75;1.98;;;0.40;99.90;;;;;;5023904;28;20042;-52
2023/03/28 05:07:09;;;;;;;13.80;2.30;;;;;;;;;;5023611;28;20072;-51
2023/03/28 05:09:35;;;;;;;9.75;1.88;;;0.50;99.90;;;;;;5025150;28;20510;-49
2023/03/28 05:12:01;;;;;;;12.05;2.20;;;0.50;99.90;;;;;;5026791;28;20050;-54
2023/03/28 05:14:26;;;;;;;7.65;2.05;;;0.60;99.90;;;;;;5025913;28;20053;-54
2023/03/28 05:16:52;;;;;;;9.38;1.92;;;0.70;99.90;;;;;;5027540;28;20037;-50
2023/03/28 05:19:19;;;;;;;10.27;2.45;;;0.70;99.90;;;;;;5026367;28;20049;-49
2023/03/28 05:21:45;;;;;;;20.17;3.23;;;0.80;99.90;;;;;;5025448;28;20095;-49
2023/03/28 05:24:10;;;;;;;7.72;2.20;;;0.80;99.90;;;;;;5026926;28;20326;-49
2023/03/28 05:26:36;;;;;;;17.48;2.78;;;0.90;99.90;;;;;;5025587;28;20044;-49
2023/03/28 05:29:02;;;;;;;11.05;2.28;;;1.00;99.90;;;;;;5025417;28;21326;-49
2023/03/28 05:31:29;;;;;;;7.38;2.03;;;1.10;99.90;;;;;;5026673;28;20589;-49
2023/03/28 05:33:55;;;;;;;9.48;2.10;;;1.10;99.90;;;;;;5026684;28;20414;-50
2023/03/28 05:36:22;;;;;;;9.25;2.05;;;1.20;99.90;;;;;;5024890;28;20057;-51
2023/03/28 05:38:48;;;;;;;8.35;1.73;;;1.30;99.90;;;;;;5026550;28;20069;-53
2023/03/28 05:41:14;;;;;;;18.90;2.63;;;1.30;99.90;;;;;;5025812;28;20041;-50
2023/03/28 05:43:40;;;;;;;13.50;2.47;;;1.30;99.90;;;;;;5009159;28;20033;-51
2023/03/28 05:46:07;;;;;;;9.63;2.22;;;1.40;99.90;;;;;;5029120;28;20057;-54
2023/03/28 05:48:33;;;;;;;8.82;1.90;;;1.50;99.90;;;;;;5029082;28;20305;-52
2023/03/28 05:50:58;;;;;;;13.25;2.63;;;1.50;99.90;;;;;;5028290;28;20104;-53
2023/03/28 05:53:24;;;;;;;10.15;2.10;;;1.50;99.90;;;;;;5023372;28;20041;-53
2023/03/28 05:55:50;;;;;;;11.43;2.00;;;1.50;99.90;;;;;;5026087;28;20116;-54
2023/03/28 05:58:16;;;;;;;13.98;2.70;;;1.50;99.90;;;;;;5029200;28;20618;-52
2023/03/28 06:00:43;;;;;;;11.75;2.55;;;1.40;99.90;;;;;;5029826;28;20165;-51
2023/03/28 06:03:09;;;;;;;13.55;2.58;;;1.40;99.90;;;;;;5028509;28;20045;-53
2023/03/28 06:05:35;;;;;;;9.82;2.58;;;1.40;99.90;;;;;;5028436;28;20090;-51
2023/03/28 06:08:01;;;;;;;9.35;2.58;;;1.40;99.90;;;;;;5027525;28;20053;-53
2023/03/28 06:10:27;;;;;;;10.55;2.20;;;1.40;99.90;;;;;;5020314;28;20045;-52
2023/03/28 06:12:52;;;;;;;11.23;2.63;;;1.50;99.90;;;;;;5026619;28;20038;-49
2023/03/28 06:15:18;;;;;;;12.98;2.10;;;1.90;99.90;;;;;;5043579;28;20166;-50
2023/03/28 06:17:44;;;;;;;11.20;2.25;;;2.90;99.90;;;;;;5032911;28;20085;-50
2023/03/28 06:20:09;;;;;;;9.88;2.15;;;4.10;99.90;;;;;;5048139;28;20083;-50
2023/03/28 06:22:36;;;;;;;8.65;2.40;;;4.30;99.90;;;;;;5019104;28;20030;-50
2023/03/28 06:25:03;;;;;;;10.05;2.38;;;5.10;99.90;;;;;;5021239;28;20041;-53
2023/03/28 06:27:34;;;;;;;14.55;2.80;;;;;;;;;;5027852;28;20160;-52
2023/03/28 06:30:00;;;;;;;10.93;2.30;;;7.10;99.90;;;;;;5028254;28;20125;-50
2023/03/28 06:32:26;;;;;;;11.73;2.35;;;7.20;99.90;;;;;;5027173;28;20120;-51
2023/03/28 06:34:52;;;;;;;7.50;2.17;;;7.80;99.90;;;;;;5025336;28;20045;-53
2023/03/28 06:37:18;;;;;;;7.18;1.80;;;9.00;99.90;;;;;;5009530;28;20053;-51
2023/03/28 06:39:43;;;;;;;11.27;2.35;;;9.00;99.90;;;;;;5008919;28;20041;-51
2023/03/28 06:42:09;;;;;;;13.27;2.00;;;9.00;99.90;;;;;;5029512;28;20043;-54
2023/03/28 06:44:35;;;;;;;6.93;2.05;;;8.10;99.90;;;;;;5025788;28;20114;-53
2023/03/28 06:47:01;;;;;;;6.45;2.17;;;7.70;99.90;;;;;;5020639;28;20136;-50
2023/03/28 06:49:27;;;;;;;6.85;1.98;;;7.00;99.90;;;;;;5021562;28;20057;-51
2023/03/28 06:51:52;;;;;;;8.32;2.08;;;6.20;99.90;;;;;;5009075;28;20029;-51
2023/03/28 06:54:18;;;;;;;11.75;2.63;;;6.00;99.90;;;;;;5024149;28;20491;-55
2023/03/28 06:56:44;;;;;;;7.90;2.50;;;5.70;99.90;;;;;;5028561;28;20092;-52
2023/03/28 06:59:10;;;;;;;10.52;2.20;;;5.40;99.90;;;;;;5033714;28;20109;-52
2023/03/28 07:01:35;;;;;;;9.60;2.75;;;5.10;99.90;;;;;;5032928;28;20042;-51
2023/03/28 07:04:01;;;;;;;9.18;2.45;;;5.00;99.90;;;;;;5032005;28;20041;-52
2023/03/28 07:06:27;;;;;;;10.93;2.33;;;4.90;99.90;;;;;;5028892;28;20130;-50
2023/03/28 07:08:57;;;;;;;14.00;2.80;;;4.80;99.90;;;;;;5025579;28;20034;-55
2023/03/28 07:11:22;;;;;;;14.18;2.60;;;4.70;99.90;;;;;;5030661;28;20041;-51
2023/03/28 07:13:48;;;;;;;8.65;2.55;;;4.70;99.90;;;;;;5025802;28;20175;-52
2023/03/28 07:16:15;;;;;;;7.15;2.40;;;4.70;99.90;;;;;;5025167;28;20439;-52
2023/03/28 07:18:41;;;;;;;8.00;2.45;;;4.70;99.90;;;;;;5024206;28;20458;-53
2023/03/28 07:21:14;;;;;;;6.80;2.28;;;4.70;99.90;;;;;;5016931;28;20077;-52
2023/03/28 07:23:40;;;;;;;13.10;3.38;;;4.80;99.90;;;;;;5029326;28;20076;-50
2023/03/28 07:26:08;;;;;;;7.57;2.20;;;4.90;99.90;;;;;;5031312;28;20052;-51
2023/03/28 07:28:35;;;;;;;9.02;3.00;;;5.00;99.90;;;;;;5028587;28;20152;-52
2023/03/28 07:31:03;;;;;;;11.60;2.72;;;5.10;99.90;;;;;;5023036;28;20240;-54
2023/03/28 07:33:30;;;;;;;10.40;2.40;;;5.20;99.90;;;;;;5028328;28;20452;-50
2023/03/28 07:35:56;;;;;;;8.27;2.47;;;5.30;99.90;;;;;;5034109;28;20052;-51
2023/03/28 07:38:22;;;;;;;9.77;2.33;;;5.40;99.90;;;;;;5030604;28;20040;-50
2023/03/28 07:40:48;;;;;;;10.20;2.58;;;5.50;99.90;;;;;;5029263;28;20041;-54
2023/03/28 07:43:13;;;;;;;7.70;2.50;;;5.60;99.90;;;;;;5030869;28;20124;-51
2023/03/28 07:45:39;;;;;;;8.45;2.55;;;5.70;99.90;;;;;;5031534;28;20045;-51
2023/03/28 07:48:05;;;;;;;9.48;2.42;;;5.90;99.90;;;;;;5023053;28;20390;-49
2023/03/28 07:50:31;;;;;;;9.25;2.78;;;6.10;99.90;;;;;;5004899;28;20080;-50
2023/03/28 07:52:57;;;;;;;9.07;2.47;;;6.30;99.90;;;;;;5017853;28;20076;-51
2023/03/28 07:55:27;;;;;;;9.75;2.50;;;6.60;99.90;;;;;;5018459;28;20478;-53
2023/03/28 07:57:53;;;;;;;9.07;2.60;;;6.70;99.90;;;;;;5018884;28;20490;-52
2023/03/28 08:00:22;;;;;;;10.65;3.97;;;6.90;99.90;;;;;;5021815;28;20041;-50
2023/03/28 08:02:48;;;;;;;8.27;2.38;;;7.00;99.90;;;;;;5020598;28;20056;-50
2023/03/28 08:05:14;;;;;;;8.70;2.15;;;7.00;99.90;;;;;;5024824;28;20045;-50
2023/03/28 08:07:44;;;;;;;6.97;2.60;;;7.20;99.90;;;;;;5022941;28;20046;-51
2023/03/28 08:10:11;;;;;;;5.45;2.25;;;7.40;99.90;;;;;;5019027;28;20069;-52
2023/03/28 08:12:37;;;;;;;9.55;2.35;;;7.40;99.90;;;;;;5020990;28;21022;-54
2023/03/28 08:15:04;;;;;;;8.20;2.42;;;7.60;99.90;;;;;;5021966;28;20494;-50
2023/03/28 08:17:30;;;;;;;9.33;2.37;;;7.70;99.90;;;;;;5016772;28;20050;-52
2023/03/28 08:19:56;;;;;;;6.63;2.42;;;8.00;99.90;;;;;;5016705;28;20128;-50
2023/03/28 08:22:23;;;;;;;7.15;2.40;;;8.10;99.90;;;;;;5019756;28;20554;-51
2023/03/28 08:24:49;;;;;;;4.43;1.88;;;8.10;99.90;;;;;;5023160;28;20494;-51
2023/03/28 08:27:15;;;;;;;7.78;2.22;;;8.00;99.90;;;;;;5024434;28;20044;-51
2023/03/28 08:29:40;;;;;;;8.70;2.20;;;7.90;99.90;;;;;;5024976;28;20045;-50
2023/03/28 08:32:06;;;;;;;5.00;1.85;;;7.90;99.90;;;;;;5026728;28;20155;-52
2023/03/28 08:34:32;;;;;;;5.55;1.98;;;7.80;99.90;;;;;;5026849;28;20120;-49
2023/03/28 08:36:58;;;;;;;9.48;2.13;;;7.80;99.90;;;;;;5008158;28;20095;-48
2023/03/28 08:39:24;;;;;;;6.72;2.22;;;7.90;99.90;;;;;;5025963;28;20123;-49
2023/03/28 08:42:14;;;;;;;7.65;2.25;;;8.00;99.90;;;;;;5023636;28;20060;-49
2023/03/28 08:45:16;;;;;;;7.63;2.00;;;8.10;99.90;;;;;;5019464;28;20541;-52
2023/03/28 08:48:20;;;;;;;7.45;2.17;;;8.20;99.90;;;;;;5021988;28;20396;-48
2023/03/28 08:51:11;;;;;;;7.60;2.20;;;8.20;99.90;;;;;;5017757;28;20081;-52
2023/03/28 08:53:42;;;;;;;9.43;2.35;;;8.30;99.90;;;;;;5022907;28;20049;-48
2023/03/28 08:56:08;;;;;;;10.20;2.13;;;8.50;99.90;;;;;;5022522;28;20077;-49
2023/03/28 08:58:50;;;;;;;11.10;2.20;;;8.60;99.90;;;;;;5021509;28;20099;-49
2023/03/28 09:01:22;;;;;;;6.30;2.05;;;8.80;99.90;;;;;;5018321;28;20509;-48
2023/03/28 09:03:49;;;;;;;6.10;1.70;;;8.80;99.90;;;;;;5001695;28;20061;-51
2023/03/28 09:06:29;;;;;;;8.73;1.63;;;8.90;99.90;;;;;;5003851;28;20069;-50
2023/03/28 09:09:07;;;;;;;4.30;1.35;;;9.10;99.90;;;;;;5020302;28;20128;-53
2023/03/28 09:12:01;;;;;;;7.93;1.60;;;9.10;99.90;;;;;;5022989;28;20049;-55
2023/03/28 09:14:58;;;;;;;6.03;1.40;;;8.70;99.90;;;;;;5012821;28;20053;-52
2023/03/28 09:18:02;;;;;;;9.30;1.98;;;8.80;99.90;;;;;;5021164;28;20151;-53
2023/03/28 09:20:46;;;;;;;6.45;1.30;;;8.60;99.90;;;;;;5010130;28;20127;-52
2023/03/28 09:23:34;;;;;;;5.53;1.10;;;8.50;99.90;;;;;;5020141;28;20037;-52
2023/03/28 09:26:12;;;;;;;8.55;1.48;;;8.30;99.90;;;;;;5024511;28;20128;-49
2023/03/28 09:29:02;;;;;;;5.82;1.30;;;8.10;99.90;;;;;;5021200;28;20222;-54
2023/03/28 09:31:34;;;;;;;3.53;1.30;;;7.90;99.90;;;;;;5020933;28;20046;-52
2023/03/28 09:34:01;;;;;;;3.63;1.02;;;7.60;99.90;;;;;;5025974;28;20061;-52
2023/03/28 09:36:30;;;;;;;3.75;1.00;;;7.60;99.90;;;;;;5023787;28;20103;-53
2023/03/28 09:39:36;;;;;;;5.78;1.25;;;7.50;99.90;;;;;;5029756;28;20374;-52
2023/03/28 09:42:28;;;;;;;5.57;1.30;;;7.60;99.90;;;;;;4950422;29;20051;-50
2023/03/28 09:45:07;;;;;;;8.00;1.10;;;7.70;99.90;;;;;;4927763;29;20055;-56
2023/03/28 09:47:33;;;;;;;8.35;1.58;;;7.80;99.90;;;;;;4941471;28;20055;-53
2023/03/28 09:49:59;;;;;;;3.67;1.10;;;8.10;99.90;;;;;;4944072;28;20493;-54
2023/03/28 09:52:26;;;;;;;3.30;1.00;;;8.00;99.90;;;;;;4941608;29;20062;-51
2023/03/28 09:54:52;;;;;;;3.77;1.17;;;7.90;99.90;;;;;;4944438;28;20055;-51
2023/03/28 09:57:18;;;;;;;6.57;1.27;;;7.90;99.90;;;;;;4928807;29;20105;-50
2023/03/28 09:59:43;;;;;;;5.55;1.42;;;8.00;99.90;;;;;;4946047;29;20051;-51
2023/03/28 10:02:28;;;;;;;10.50;1.55;;;8.20;99.90;;;;;;4941092;29;20474;-52
2023/03/28 10:04:54;;;;;;;6.40;1.35;;;8.20;99.90;;;;;;4942804;29;20047;-54
2023/03/28 10:07:33;;;;;;;3.88;0.85;;;8.30;99.90;;;;;;4945090;28;20532;-52
2023/03/28 10:10:09;;;;;;;6.70;1.75;;;8.20;99.90;;;;;;4944505;29;20094;-52
2023/03/28 10:12:36;;;;;;;3.33;1.13;;;8.20;99.90;;;;;;4980020;28;20053;-50
2023/03/28 10:15:03;;;;;;;3.53;1.05;;;8.20;99.90;;;;;;5022032;28;20060;-49
2023/03/28 10:17:31;;;;;;;4.68;1.23;;;8.30;99.90;;;;;;5020246;28;20041;-52
2023/03/28 10:20:15;;;;;;;5.60;1.38;;;8.40;99.90;;;;;;5027551;28;20044;-52
2023/03/28 10:22:45;;;;;;;6.38;1.58;;;8.40;99.90;;;;;;5023356;28;20041;-53
2023/03/28 10:25:32;;;;;;;4.35;1.27;;;8.40;99.90;;;;;;5003967;28;20233;-52
2023/03/28 10:27:59;;;;;;;4.97;1.50;;;8.40;99.90;;;;;;5009329;28;20045;-49
2023/03/28 10:30:28;;;;;;;3.00;1.23;;;8.50;99.90;;;;;;5004483;28;20049;-50
2023/03/28 10:33:16;;;;;;;9.10;2.25;;;8.50;99.90;;;;;;5024576;28;20067;-49
2023/03/28 10:36:00;;;;;;;3.75;1.20;;;8.80;99.90;;;;;;5023966;28;20056;-49
2023/03/28 10:38:52;;;;;;;4.95;1.52;;;8.80;99.90;;;;;;5025445;28;20053;-52
2023/03/28 10:41:23;;;;;;;3.63;1.10;;;9.10;99.90;;;;;;5018104;28;20096;-51
2023/03/28 10:43:49;;;;;;;6.28;1.60;;;9.20;99.90;;;;;;5025549;28;20033;-52
2023/03/28 10:46:20;;;;;;;4.10;1.25;;;9.40;99.90;;;;;;5020611;28;20038;-49
2023/03/28 10:48:56;;;;;;;6.10;1.50;;;9.60;99.90;;;;;;5020431;28;20060;-52
2023/03/28 10:51:24;;;;;;;3.17;1.40;;;9.70;99.90;;;;;;5020774;28;20041;-51
2023/03/28 10:54:08;;;;;;;;;;;9.80;99.90;;;;;;4475788;22;20263;-50
2023/03/28 10:56:53;;;;;;;3.47;1.27;;;9.80;99.90;;;;;;5080161;28;19928;-49
2023/03/28 10:59:28;;;;;;;5.53;1.40;;;9.70;99.90;;;;;;5076165;28;20048;-51
2023/03/28 11:01:56;;;;;;;6.50;1.40;;;9.70;99.90;;;;;;5082221;28;20036;-49
2023/03/28 11:04:54;;;;;;;4.00;1.35;;;9.70;99.90;;;;;;5083211;28;20044;-48
2023/03/28 11:07:23;;;;;;;4.75;1.48;;;9.60;99.90;;;;;;5060539;28;20102;-49
2023/03/28 11:09:57;;;;;;;5.90;1.77;;;9.80;99.90;;;;;;5060270;28;20107;-49
2023/03/28 11:12:26;;;;;;;2.97;1.15;;;9.90;99.90;;;;;;5058747;28;20041;-49
2023/03/28 11:15:05;;;;;;;5.63;1.30;;;10.00;99.90;;;;;;5060868;28;20394;-53
2023/03/28 11:17:40;;;;;;;3.65;1.40;;;;;;;;;;5062043;28;20040;-51
2023/03/28 11:20:27;;;;;;;3.50;1.60;;;10.30;99.90;;;;;;5062396;28;20068;-53
2023/03/28 11:23:08;;;;;;;4.90;1.60;;;10.30;99.90;;;;;;5064895;28;20391;-50
2023/03/28 11:26:08;;;;;;;7.00;1.77;;;10.10;99.90;;;;;;5062305;28;20175;-50
2023/03/28 11:29:04;;;;;;;5.75;1.80;;;10.10;99.90;;;;;;5060493;28;20402;-52
2023/03/28 11:31:38;;;;;;;5.95;1.67;;;10.10;99.90;;;;;;5058737;28;20119;-50
2023/03/28 11:34:28;;;;;;;10.13;1.73;;;10.10;99.90;;;;;;5062750;28;20036;-49
2023/03/28 11:36:59;;;;;;;5.50;1.52;;;10.20;99.90;;;;;;5060025;28;20059;-52
2023/03/28 11:39:35;;;;;;;6.95;1.60;;;10.20;99.90;;;;;;5064042;28;20110;-51
2023/03/28 11:42:09;;;;;;;9.07;1.88;;;10.20;99.90;;;;;;5061829;28;20071;-49
2023/03/28 11:45:05;;;;;;;6.20;1.75;;;10.10;99.90;;;;;;5062094;28;20041;-53
2023/03/28 11:47:43;;;;;;;8.75;1.83;;;10.20;99.90;;;;;;5051505;28;20106;-49
2023/03/28 11:50:27;;;;;;;5.22;1.73;;;10.00;99.90;;;;;;5061008;28;20040;-49
2023/03/28 11:53:00;;;;;;;4.85;1.80;;;10.20;99.90;;;;;;5059091;28;20197;-49
2023/03/28 11:55:34;;;;;;;5.07;1.85;;;10.20;99.90;;;;;;5057475;28;20554;-51
2023/03/28 11:58:17;;;;;;;8.63;2.13;;;10.30;99.90;;;;;;5059962;28;20059;-53
2023/03/28 12:01:10;;;;;;;3.83;1.70;;;10.40;99.90;;;;;;5064308;28;20471;-53
2023/03/28 12:04:08;;;;;;;4.95;1.85;;;10.40;99.90;;;;;;5058621;28;20047;-53
2023/03/28 12:06:43;;;;;;;;;;;10.50;99.90;;;;;;5058776;28;20037;-50
2023/03/28 12:09:27;;;;;;;6.30;1.70;;;10.40;99.90;;;;;;5061610;28;19920;-49
2023/03/28 12:12:02;;;;;;;5.03;1.80;;;10.20;99.90;;;;;;5058591;28;20131;-50
2023/03/28 12:15:03;;;;;;;7.22;1.88;;;10.20;99.90;;;;;;5057411;28;21243;-50
2023/03/28 12:17:38;;;;;;;6.05;1.88;;;10.20;99.90;;;;;;5061162;28;20167;-51
2023/03/28 12:20:11;;;;;;;4.55;2.08;;;10.20;99.90;;;;;;5055410;28;20677;-49
2023/03/28 12:22:43;;;;;;;5.15;1.63;;;10.40;99.90;;;;;;5060145;28;20519;-49
2023/03/28 12:25:36;;;;;;;3.67;1.45;;;10.30;99.90;;;;;;5057242;28;20086;-50
2023/03/28 12:28:19;;;;;;;5.88;1.98;;;10.70;99.90;;;;;;5060343;28;20493;-49
2023/03/28 12:31:03;;;;;;;4.40;1.70;;;10.70;99.90;;;;;;5063444;28;20131;-51
2023/03/28 12:33:42;;;;;;;8.18;2.20;;;10.60;99.90;;;;;;5060260;28;20159;-49
2023/03/28 12:36:24;;;;;;;5.95;2.30;;;10.60;99.90;;;;;;5061594;28;20425;-49
2023/03/28 12:38:59;;;;;;;8.50;1.80;;;10.60;99.90;;;;;;5060948;28;20044;-49
2023/03/28 12:41:31;;;;;;;8.43;2.13;;;10.30;99.90;;;;;;5063793;28;20447;-50
2023/03/28 12:44:03;;;;;;;4.20;1.88;;;10.20;99.90;;;;;;5067991;28;20049;-49
2023/03/28 12:46:37;;;;;;;5.65;1.90;;;10.40;99.90;;;;;;5066993;28;20537;-50
2023/03/28 12:49:09;;;;;;;3.88;2.00;;;10.60;99.90;;;;;;5068524;28;20036;-51
2023/03/28 12:51:39;;;;;;;4.53;2.03;;;10.70;99.90;;;;;;5067584;28;20048;-51
2023/03/28 12:54:14;;;;;;;3.85;1.85;;;10.60;99.90;;;;;;5069184;28;20055;-50
2023/03/28 12:56:40;;;;;;;9.00;1.88;;;10.70;99.90;;;;;;5074730;28;20127;-49
2023/03/28 12:59:40;;;;;;;5.95;2.00;;;10.30;99.90;;;;;;5075246;28;20124;-49
2023/03/28 13:02:53;;;;;;;5.07;2.33;;;10.40;99.90;;;;;;5074710;28;20040;-49
2023/03/28 13:05:46;;;;;;;4.55;1.70;;;10.20;99.90;;;;;;5010367;28;20073;-49
2023/03/28 13:08:22;;;;;;;6.15;1.80;;;10.30;99.90;;;;;;4994635;28;20104;-52
2023/03/28 13:11:11;;;;;;;6.65;2.22;;;10.40;99.90;;;;;;5010419;28;20053;-50
2023/03/28 13:13:48;;;;;;;7.18;1.63;;;10.40;99.90;;;;;;4997737;28;20398;-48
2023/03/28 13:16:15;;;;;;;5.43;2.35;;;10.50;99.90;;;;;;5013784;28;20042;-49
2023/03/28 13:19:02;;;;;;;4.13;2.00;;;10.60;99.90;;;;;;5012352;28;20558;-49
2023/03/28 13:21:43;;;;;;;6.00;2.28;;;10.40;99.90;;;;;;5010678;28;20372;-54